Livingston, CA (95334)

8:34 AM PDT on August 30, 2014 (GMT -0700)
Ballico Weather | Change Station
CLOSE
Current Station
Personal Weather Station
Location: Ballico, CA
Elevation: 164 ft
Nearby Weather Stations

Elev 164 ft 37.43 °N, 120.72 °W | Updated 10 seconds ago

Partly Cloudy
Partly Cloudy
70.3 °F
Feels Like 76 °F
N
2.0
Wind Variable Wind from WSW
Gusts 4.0 mph

Today
High -- | Low -- °F
--% Chance of Precip.
Yesterday
High -- | Low -- °F
Precip. -- in
6:31 AM 7:34 PM
Waxing Crescent, 22% visible
Pressure 29.86 in
Visibility 10.0 miles
Clouds Scattered Clouds 18000 ft
Heat Index 76 °F
Dew Point 57 °F
Humidity 62%
Rainfall 0.00 in
Snow Depth Not available.
UV 1 out of 12
Pollen 9.90 out of 12
Air Quality Not available.
Flu Activity Not available.
METAR KMER 301445Z 00000KT 10SM SCT180 22/12 A2986

More Conditions Fewer Conditions

Pressure 29.86 in
Visibility 10.0 miles
Clouds Scattered Clouds 18000 ft
Heat Index 76 °F
Dew Point 57 °F
Humidity 62%
Rainfall 0.00 in
Snow Depth Not available.
UV 1 out of 12
Pollen 9.90 out of 12
Air Quality Not available.
Flu Activity Not available.
METAR KMER 301445Z 00000KT 10SM SCT180 22/12 A2986

More Conditions Fewer Conditions

10-Day Weather Forecast

Almanac

Astronomy

Aug. 30, 2014 Rise Set
Actual Time 6:31 AM PDT 7:34 PM PDT
Civil Twilight 6:04 AM PDT 8:01 PM PDT
Nautical Twilight 5:33 AM PDT 8:33 PM PDT
Astronomical Twilight 4:59 AM PDT 9:06 PM PDT
Moon 11:17 AM PDT 10:19 PM PDT
Length of Visible Light 13h 56m
Length of Day
13h 02m
Tomorrow will be 2m 17s shorter.
Waxing Crescent, 22% of the Moon is Illuminated
Today
Waxing Crescent
Sep 2
First Quarter
Sep 8
Full
Sep 15
Last Quarter
Sep 24
New

Today's Extremes

State Highs State Lows

Community

WunderPhotos

Upload Photos

1,748,551 photos uploaded!

WunderBlogs® & News

Nearby

Air Quality

  Air Quality AQ Index Pollutant
Saturday Good
OZONE
Sunday Good
OZONE
Monday Good
OZONE
Tuesday Good
OZONE
Wednesday Good
OZONE

Snow Depth

Station Depth Elevation
Leavitt Lake 0 in 9400 ft
Leavitt Meadows 1 in 7200 ft
Blue Lakes 0 in 8000 ft
Summit Meadow 1 in 9122 ft
Forestdale Creek 0 in 8029 ft

Earthquake Activity

City Distance Mag. Time & Date
Ridgemark, California 57 miles 3.4 4:32 PM PDT
2014-08-29
Ridgemark, California 57 miles 3.0 2:44 PM PDT
2014-08-29
Orange Cove, California 96 miles 2.5 7:48 AM PDT
2014-08-29
Minimum magnitude displayed is 2.5.

Coastal Water Temperatures

Place Temperature
No Stations Reporting

Nearby Weather Stations